KMGW

Morgantown Municipal-Walter L Bill Hart Field Airport

Morgantown, West Virginia, USA
METAR KMGW 221744Z VRB03KT 9SM -RA BKN012 BKN021 OVC065 21/20 A3008 RMK AO2 RAB11 P0002 T02060200
Observed Flight Rules
May-22 @ 17:44 UTC (9 minutes ago) Marginal Visual Flight Rules
Wind Visibility Clouds Conditions
Variable at 3 knots 9 miles
  • Broken at 1,200' AGL
  • Broken at 2,100' AGL
  • Overcast at 6,500' AGL
  • Light Rain
Temperatures Readings Precipitation
Current 21°C / 70°F
Dewpoint 20°C / 68°F
Humidity 94%
Altimeter 30.08" Hg
Pressure 1019 hPa
Elevation 378
Current Rain 0.02
METAR KMGW 221744Z VRB03KT 9SM -RA BKN012 BKN021 OVC065 21/20 A3008 RMK AO2 RAB11 P0002 T02060200
Observed Flight Rules
May-22 @ 17:44 UTC
(9 minutes ago)
MVFR
Wind Visibility
Variable at 3 knots 9 miles
Clouds
  • Broken at 1,200' AGL
  • Broken at 2,100' AGL
  • Overcast at 6,500' AGL
Conditions
  • Light Rain
Temperature Dewpoint
21°C / 70°F 20°C / 68°F
Humidity Altimeter Pressure
94% 30.08" Hg 1019 hPa
Current Rain
0.02